KFTW/FTW METAR and TAF weather

Enter ICAO airport designator
Station Type Date Time Source
KFTW METAR 2019/10/21 22:53 UTC NOAA

KFTW 212253Z 30004KT 10SM CLR 21/M01 A2993 RMK AO2 SLP128 T02111006


Station Type Date Time Source
KFTW Decoded METAR 2019/10/21 22:53 UTC NOAA

FORT WORTH MEACHAM INTERNATIONAL ., TX, United States (KFTW) 32-50N 097-22W 214M
Oct 21, 2019 - 06:53 PM EDT / 2019.10.21 2253 UTC
Wind: from the WNW (300 degrees) at 5 MPH (4 KT):0
Visibility: 10 mile(s):0
Sky conditions: clear
Temperature: 70.0 F (21.1 C)
Dew Point: 30.9 F (-0.6 C)
Relative Humidity: 23%
Pressure (altimeter): 29.93 in. Hg (1013 hPa)
ob: KFTW 212253Z 30004KT 10SM CLR 21/M01 A2993 RMK AO2 SLP128 T02111006
cycle: 23

Station Type Date Time Source
KFTW TAF 2019/10/21 21:54 UTC NOAA

TAF
AMD KFTW 212052Z 2121/2218 32012KT P6SM SCT300
FM220300 VRB04KT P6SM SKC

Example: see airport list